sensor_id;sensor_type;location;lat;lon;timestamp;P1;durP1;ratioP1;P2;durP2;ratioP2
27505;SDS011;14939;43.596;1.320;2023-02-01T00:01:59;25.20;;;13.57;;
27505;SDS011;14939;43.596;1.320;2023-02-01T00:04:25;21.58;;;12.52;;
27505;SDS011;14939;43.596;1.320;2023-02-01T00:06:51;19.38;;;11.70;;
27505;SDS011;14939;43.596;1.320;2023-02-01T00:09:17;19.58;;;11.65;;
27505;SDS011;14939;43.596;1.320;2023-02-01T00:11:42;16.08;;;10.65;;
27505;SDS011;14939;43.596;1.320;2023-02-01T00:14:09;14.80;;;9.60;;
27505;SDS011;14939;43.596;1.320;2023-02-01T00:16:35;14.65;;;9.10;;
27505;SDS011;14939;43.596;1.320;2023-02-01T00:19:02;11.43;;;7.82;;
27505;SDS011;14939;43.596;1.320;2023-02-01T00:21:30;11.55;;;6.75;;
27505;SDS011;14939;43.596;1.320;2023-02-01T00:23:56;10.15;;;6.43;;
27505;SDS011;14939;43.596;1.320;2023-02-01T00:26:25;11.60;;;6.85;;
27505;SDS011;14939;43.596;1.320;2023-02-01T00:29:18;10.15;;;5.75;;
27505;SDS011;14939;43.596;1.320;2023-02-01T00:31:45;10.27;;;6.05;;
27505;SDS011;14939;43.596;1.320;2023-02-01T00:34:12;9.57;;;6.50;;
27505;SDS011;14939;43.596;1.320;2023-02-01T00:36:40;9.07;;;6.20;;
27505;SDS011;14939;43.596;1.320;2023-02-01T00:39:06;9.25;;;5.95;;
27505;SDS011;14939;43.596;1.320;2023-02-01T00:41:32;7.45;;;5.38;;
27505;SDS011;14939;43.596;1.320;2023-02-01T00:43:58;8.48;;;5.78;;
27505;SDS011;14939;43.596;1.320;2023-02-01T00:46:24;8.50;;;5.78;;
27505;SDS011;14939;43.596;1.320;2023-02-01T00:48:50;9.02;;;5.75;;
27505;SDS011;14939;43.596;1.320;2023-02-01T00:51:19;7.82;;;5.70;;
27505;SDS011;14939;43.596;1.320;2023-02-01T00:53:46;9.38;;;5.85;;
27505;SDS011;14939;43.596;1.320;2023-02-01T00:56:12;9.38;;;5.82;;
27505;SDS011;14939;43.596;1.320;2023-02-01T00:58:39;10.93;;;6.38;;
27505;SDS011;14939;43.596;1.320;2023-02-01T01:01:11;9.55;;;5.60;;
27505;SDS011;14939;43.596;1.320;2023-02-01T01:03:41;8.85;;;5.45;;
27505;SDS011;14939;43.596;1.320;2023-02-01T01:06:10;12.27;;;6.35;;
27505;SDS011;14939;43.596;1.320;2023-02-01T01:08:38;9.77;;;6.15;;
27505;SDS011;14939;43.596;1.320;2023-02-01T01:11:06;8.27;;;5.28;;
27505;SDS011;14939;43.596;1.320;2023-02-01T01:13:36;8.10;;;5.32;;
27505;SDS011;14939;43.596;1.320;2023-02-01T01:16:03;8.57;;;5.53;;
27505;SDS011;14939;43.596;1.320;2023-02-01T01:18:31;7.82;;;4.95;;
27505;SDS011;14939;43.596;1.320;2023-02-01T01:20:58;8.73;;;4.60;;
27505;SDS011;14939;43.596;1.320;2023-02-01T01:23:24;7.85;;;4.60;;
27505;SDS011;14939;43.596;1.320;2023-02-01T01:25:50;5.53;;;4.25;;
27505;SDS011;14939;43.596;1.320;2023-02-01T01:28:16;6.90;;;4.30;;
27505;SDS011;14939;43.596;1.320;2023-02-01T01:30:41;5.75;;;4.28;;
27505;SDS011;14939;43.596;1.320;2023-02-01T01:33:07;5.95;;;4.38;;
27505;SDS011;14939;43.596;1.320;2023-02-01T01:35:33;6.25;;;4.28;;
27505;SDS011;14939;43.596;1.320;2023-02-01T01:37:59;4.53;;;3.50;;
27505;SDS011;14939;43.596;1.320;2023-02-01T01:40:26;5.50;;;3.78;;
27505;SDS011;14939;43.596;1.320;2023-02-01T01:42:52;5.57;;;3.80;;
27505;SDS011;14939;43.596;1.320;2023-02-01T01:48:37;5.55;;;3.78;;
27505;SDS011;14939;43.596;1.320;2023-02-01T01:50:55;6.13;;;4.18;;
27505;SDS011;14939;43.596;1.320;2023-02-01T01:53:35;4.57;;;3.45;;
27505;SDS011;14939;43.596;1.320;2023-02-01T01:56:22;3.97;;;3.22;;
27505;SDS011;14939;43.596;1.320;2023-02-01T01:58:49;3.85;;;3.33;;
27505;SDS011;14939;43.596;1.320;2023-02-01T02:01:15;5.88;;;3.60;;
27505;SDS011;14939;43.596;1.320;2023-02-01T02:03:44;6.88;;;3.55;;
27505;SDS011;14939;43.596;1.320;2023-02-01T02:06:34;5.78;;;3.22;;
27505;SDS011;14939;43.596;1.320;2023-02-01T02:09:03;5.40;;;3.72;;
27505;SDS011;14939;43.596;1.320;2023-02-01T02:11:29;7.55;;;4.05;;
27505;SDS011;14939;43.596;1.320;2023-02-01T02:13:55;5.78;;;3.70;;
27505;SDS011;14939;43.596;1.320;2023-02-01T02:43:31;8.05;;;5.28;;
27505;SDS011;14939;43.596;1.320;2023-02-01T02:46:46;8.63;;;5.63;;
27505;SDS011;14939;43.596;1.320;2023-02-01T02:49:36;9.63;;;5.75;;
27505;SDS011;14939;43.596;1.320;2023-02-01T02:52:13;9.30;;;5.30;;
27505;SDS011;14939;43.596;1.320;2023-02-01T02:55:03;7.15;;;4.68;;
27505;SDS011;14939;43.596;1.320;2023-02-01T02:57:37;6.07;;;4.45;;
27505;SDS011;14939;43.596;1.320;2023-02-01T03:00:25;6.18;;;4.18;;
27505;SDS011;14939;43.596;1.320;2023-02-01T03:03:12;5.88;;;3.92;;
27505;SDS011;14939;43.596;1.320;2023-02-01T03:05:57;5.07;;;3.63;;
27505;SDS011;14939;43.596;1.320;2023-02-01T03:08:26;5.80;;;3.80;;
27505;SDS011;14939;43.596;1.320;2023-02-01T03:11:07;7.70;;;3.88;;
27505;SDS011;14939;43.596;1.320;2023-02-01T03:13:49;6.13;;;4.15;;
27505;SDS011;14939;43.596;1.320;2023-02-01T03:18:57;5.90;;;4.10;;
27505;SDS011;14939;43.596;1.320;2023-02-01T03:21:35;7.85;;;4.47;;
27505;SDS011;14939;43.596;1.320;2023-02-01T03:24:03;8.68;;;5.38;;
27505;SDS011;14939;43.596;1.320;2023-02-01T03:26:36;8.02;;;4.30;;
27505;SDS011;14939;43.596;1.320;2023-02-01T03:29:11;8.45;;;4.70;;
27505;SDS011;14939;43.596;1.320;2023-02-01T03:31:41;6.75;;;4.35;;
27505;SDS011;14939;43.596;1.320;2023-02-01T03:34:07;6.55;;;3.88;;
27505;SDS011;14939;43.596;1.320;2023-02-01T03:36:47;11.20;;;4.93;;
27505;SDS011;14939;43.596;1.320;2023-02-01T03:41:53;6.55;;;4.20;;
27505;SDS011;14939;43.596;1.320;2023-02-01T03:44:37;5.60;;;3.58;;
27505;SDS011;14939;43.596;1.320;2023-02-01T03:47:19;4.05;;;2.95;;
27505;SDS011;14939;43.596;1.320;2023-02-01T03:49:52;4.13;;;2.90;;
27505;SDS011;14939;43.596;1.320;2023-02-01T03:52:41;4.55;;;3.33;;
27505;SDS011;14939;43.596;1.320;2023-02-01T03:55:08;4.85;;;3.15;;
27505;SDS011;14939;43.596;1.320;2023-02-01T03:57:37;3.90;;;2.83;;
27505;SDS011;14939;43.596;1.320;2023-02-01T04:00:14;4.80;;;2.80;;
27505;SDS011;14939;43.596;1.320;2023-02-01T04:02:43;4.82;;;2.97;;
27505;SDS011;14939;43.596;1.320;2023-02-01T04:05:09;3.65;;;2.65;;
27505;SDS011;14939;43.596;1.320;2023-02-01T04:07:34;5.15;;;3.00;;
27505;SDS011;14939;43.596;1.320;2023-02-01T04:10:00;3.90;;;3.00;;
27505;SDS011;14939;43.596;1.320;2023-02-01T04:12:26;3.90;;;2.78;;
27505;SDS011;14939;43.596;1.320;2023-02-01T04:14:52;4.72;;;2.80;;
27505;SDS011;14939;43.596;1.320;2023-02-01T04:17:18;5.05;;;3.25;;
27505;SDS011;14939;43.596;1.320;2023-02-01T04:19:43;3.67;;;2.75;;
27505;SDS011;14939;43.596;1.320;2023-02-01T04:22:09;4.22;;;3.00;;
27505;SDS011;14939;43.596;1.320;2023-02-01T04:24:35;4.18;;;2.85;;
27505;SDS011;14939;43.596;1.320;2023-02-01T04:27:01;4.30;;;2.90;;
27505;SDS011;14939;43.596;1.320;2023-02-01T04:29:27;4.95;;;3.00;;
27505;SDS011;14939;43.596;1.320;2023-02-01T04:31:53;4.47;;;2.70;;
27505;SDS011;14939;43.596;1.320;2023-02-01T04:34:19;4.75;;;3.20;;
27505;SDS011;14939;43.596;1.320;2023-02-01T04:36:44;4.47;;;2.85;;
27505;SDS011;14939;43.596;1.320;2023-02-01T04:39:10;4.65;;;2.97;;
27505;SDS011;14939;43.596;1.320;2023-02-01T04:41:36;5.25;;;2.97;;
27505;SDS011;14939;43.596;1.320;2023-02-01T04:44:02;5.18;;;3.05;;
27505;SDS011;14939;43.596;1.320;2023-02-01T04:46:27;3.53;;;2.67;;
27505;SDS011;14939;43.596;1.320;2023-02-01T04:48:53;5.10;;;2.83;;
27505;SDS011;14939;43.596;1.320;2023-02-01T04:51:19;4.82;;;3.05;;
27505;SDS011;14939;43.596;1.320;2023-02-01T04:53:45;5.40;;;2.80;;
27505;SDS011;14939;43.596;1.320;2023-02-01T04:56:11;5.32;;;2.97;;
27505;SDS011;14939;43.596;1.320;2023-02-01T04:58:36;5.45;;;3.08;;
27505;SDS011;14939;43.596;1.320;2023-02-01T05:01:03;5.43;;;3.42;;
27505;SDS011;14939;43.596;1.320;2023-02-01T05:03:30;3.97;;;2.83;;
27505;SDS011;14939;43.596;1.320;2023-02-01T05:05:59;5.30;;;3.60;;
27505;SDS011;14939;43.596;1.320;2023-02-01T05:08:25;5.85;;;4.00;;
27505;SDS011;14939;43.596;1.320;2023-02-01T05:10:51;7.15;;;4.68;;
27505;SDS011;14939;43.596;1.320;2023-02-01T05:13:17;4.47;;;3.53;;
27505;SDS011;14939;43.596;1.320;2023-02-01T05:16:02;4.28;;;3.38;;
27505;SDS011;14939;43.596;1.320;2023-02-01T05:18:28;5.72;;;3.33;;
27505;SDS011;14939;43.596;1.320;2023-02-01T05:20:54;6.75;;;3.60;;
27505;SDS011;14939;43.596;1.320;2023-02-01T05:23:19;4.57;;;3.40;;
27505;SDS011;14939;43.596;1.320;2023-02-01T05:25:45;4.47;;;3.47;;
27505;SDS011;14939;43.596;1.320;2023-02-01T05:28:11;5.70;;;3.42;;
27505;SDS011;14939;43.596;1.320;2023-02-01T05:30:37;4.85;;;3.58;;
27505;SDS011;14939;43.596;1.320;2023-02-01T05:33:03;5.85;;;3.67;;
27505;SDS011;14939;43.596;1.320;2023-02-01T05:35:29;4.07;;;3.13;;
27505;SDS011;14939;43.596;1.320;2023-02-01T05:37:55;4.78;;;3.60;;
27505;SDS011;14939;43.596;1.320;2023-02-01T05:40:21;4.53;;;3.47;;
27505;SDS011;14939;43.596;1.320;2023-02-01T05:42:46;5.70;;;3.78;;
27505;SDS011;14939;43.596;1.320;2023-02-01T05:45:13;4.93;;;3.70;;
27505;SDS011;14939;43.596;1.320;2023-02-01T05:47:38;6.35;;;4.20;;
27505;SDS011;14939;43.596;1.320;2023-02-01T05:50:05;8.43;;;4.70;;
27505;SDS011;14939;43.596;1.320;2023-02-01T05:52:31;7.95;;;4.68;;
27505;SDS011;14939;43.596;1.320;2023-02-01T05:54:57;6.18;;;4.25;;
27505;SDS011;14939;43.596;1.320;2023-02-01T05:57:23;5.97;;;3.67;;
27505;SDS011;14939;43.596;1.320;2023-02-01T05:59:49;7.47;;;3.95;;
27505;SDS011;14939;43.596;1.320;2023-02-01T06:02:15;5.97;;;3.80;;
27505;SDS011;14939;43.596;1.320;2023-02-01T06:04:41;5.22;;;3.55;;
27505;SDS011;14939;43.596;1.320;2023-02-01T06:07:07;5.97;;;4.18;;
27505;SDS011;14939;43.596;1.320;2023-02-01T06:09:34;7.80;;;4.72;;
27505;SDS011;14939;43.596;1.320;2023-02-01T06:12:00;8.93;;;4.82;;
27505;SDS011;14939;43.596;1.320;2023-02-01T06:14:26;7.68;;;5.28;;
27505;SDS011;14939;43.596;1.320;2023-02-01T06:16:53;9.35;;;4.65;;
27505;SDS011;14939;43.596;1.320;2023-02-01T06:19:19;5.97;;;4.18;;
27505;SDS011;14939;43.596;1.320;2023-02-01T06:21:46;9.73;;;4.82;;
27505;SDS011;14939;43.596;1.320;2023-02-01T06:24:12;8.48;;;4.60;;
27505;SDS011;14939;43.596;1.320;2023-02-01T06:26:37;11.00;;;4.70;;
27505;SDS011;14939;43.596;1.320;2023-02-01T06:29:05;12.50;;;5.20;;
27505;SDS011;14939;43.596;1.320;2023-02-01T06:31:31;11.00;;;5.45;;
27505;SDS011;14939;43.596;1.320;2023-02-01T06:33:58;9.55;;;5.05;;
27505;SDS011;14939;43.596;1.320;2023-02-01T06:36:24;13.30;;;6.10;;
27505;SDS011;14939;43.596;1.320;2023-02-01T06:38:49;16.15;;;6.85;;
27505;SDS011;14939;43.596;1.320;2023-02-01T06:41:15;13.13;;;6.80;;
27505;SDS011;14939;43.596;1.320;2023-02-01T06:43:41;11.45;;;6.90;;
27505;SDS011;14939;43.596;1.320;2023-02-01T06:46:08;16.48;;;8.60;;
27505;SDS011;14939;43.596;1.320;2023-02-01T06:48:36;14.93;;;8.02;;
27505;SDS011;14939;43.596;1.320;2023-02-01T06:51:02;15.15;;;7.90;;
27505;SDS011;14939;43.596;1.320;2023-02-01T06:53:28;13.80;;;7.10;;
27505;SDS011;14939;43.596;1.320;2023-02-01T06:55:54;13.05;;;7.63;;
27505;SDS011;14939;43.596;1.320;2023-02-01T06:58:21;14.18;;;6.65;;
27505;SDS011;14939;43.596;1.320;2023-02-01T07:00:48;16.25;;;7.40;;
27505;SDS011;14939;43.596;1.320;2023-02-01T07:03:13;16.05;;;7.68;;
27505;SDS011;14939;43.596;1.320;2023-02-01T07:05:39;12.18;;;6.70;;
27505;SDS011;14939;43.596;1.320;2023-02-01T07:08:05;13.40;;;7.10;;
27505;SDS011;14939;43.596;1.320;2023-02-01T07:10:31;16.80;;;8.30;;
27505;SDS011;14939;43.596;1.320;2023-02-01T07:12:58;13.52;;;7.20;;
27505;SDS011;14939;43.596;1.320;2023-02-01T07:15:24;14.25;;;7.80;;
27505;SDS011;14939;43.596;1.320;2023-02-01T07:17:50;16.00;;;7.05;;
27505;SDS011;14939;43.596;1.320;2023-02-01T07:20:16;15.05;;;7.30;;
27505;SDS011;14939;43.596;1.320;2023-02-01T07:22:42;11.80;;;6.70;;
27505;SDS011;14939;43.596;1.320;2023-02-01T07:25:08;12.50;;;7.35;;
27505;SDS011;14939;43.596;1.320;2023-02-01T07:27:34;12.50;;;7.40;;
27505;SDS011;14939;43.596;1.320;2023-02-01T07:30:00;12.35;;;7.03;;
27505;SDS011;14939;43.596;1.320;2023-02-01T07:32:27;11.43;;;6.25;;
27505;SDS011;14939;43.596;1.320;2023-02-01T07:34:56;12.30;;;7.30;;
27505;SDS011;14939;43.596;1.320;2023-02-01T07:37:22;11.73;;;7.50;;
27505;SDS011;14939;43.596;1.320;2023-02-01T07:39:49;13.35;;;7.10;;
27505;SDS011;14939;43.596;1.320;2023-02-01T07:42:16;11.18;;;7.30;;
27505;SDS011;14939;43.596;1.320;2023-02-01T07:44:42;12.45;;;6.65;;
27505;SDS011;14939;43.596;1.320;2023-02-01T07:47:07;12.20;;;6.90;;
27505;SDS011;14939;43.596;1.320;2023-02-01T07:49:33;14.77;;;7.10;;
27505;SDS011;14939;43.596;1.320;2023-02-01T07:51:59;11.98;;;7.78;;
27505;SDS011;14939;43.596;1.320;2023-02-01T07:54:24;11.70;;;7.93;;
27505;SDS011;14939;43.596;1.320;2023-02-01T07:57:05;13.80;;;8.80;;
27505;SDS011;14939;43.596;1.320;2023-02-01T07:59:33;15.38;;;8.57;;
27505;SDS011;14939;43.596;1.320;2023-02-01T08:01:59;13.48;;;9.07;;
27505;SDS011;14939;43.596;1.320;2023-02-01T08:04:34;14.50;;;9.73;;
27505;SDS011;14939;43.596;1.320;2023-02-01T08:07:00;9.05;;;6.43;;
27505;SDS011;14939;43.596;1.320;2023-02-01T08:09:26;10.35;;;6.93;;
27505;SDS011;14939;43.596;1.320;2023-02-01T08:11:52;9.38;;;5.80;;
27505;SDS011;14939;43.596;1.320;2023-02-01T08:14:18;12.98;;;6.50;;
27505;SDS011;14939;43.596;1.320;2023-02-01T08:16:43;11.07;;;6.68;;
27505;SDS011;14939;43.596;1.320;2023-02-01T08:19:09;10.60;;;6.30;;
27505;SDS011;14939;43.596;1.320;2023-02-01T08:21:35;10.93;;;6.55;;
27505;SDS011;14939;43.596;1.320;2023-02-01T08:24:04;11.75;;;5.85;;
27505;SDS011;14939;43.596;1.320;2023-02-01T08:26:30;10.63;;;5.47;;
27505;SDS011;14939;43.596;1.320;2023-02-01T08:28:57;14.63;;;6.00;;
27505;SDS011;14939;43.596;1.320;2023-02-01T08:31:25;10.93;;;6.20;;
27505;SDS011;14939;43.596;1.320;2023-02-01T08:33:53;10.38;;;5.95;;
27505;SDS011;14939;43.596;1.320;2023-02-01T08:36:20;10.18;;;6.45;;
27505;SDS011;14939;43.596;1.320;2023-02-01T08:38:48;16.17;;;6.50;;
27505;SDS011;14939;43.596;1.320;2023-02-01T08:41:15;11.18;;;5.95;;
27505;SDS011;14939;43.596;1.320;2023-02-01T08:43:42;13.70;;;5.38;;
27505;SDS011;14939;43.596;1.320;2023-02-01T08:46:08;14.02;;;5.60;;
27505;SDS011;14939;43.596;1.320;2023-02-01T08:48:35;13.23;;;5.43;;
27505;SDS011;14939;43.596;1.320;2023-02-01T08:51:02;12.00;;;5.00;;
27505;SDS011;14939;43.596;1.320;2023-02-01T08:53:32;10.85;;;5.40;;
27505;SDS011;14939;43.596;1.320;2023-02-01T08:55:58;11.55;;;5.32;;
27505;SDS011;14939;43.596;1.320;2023-02-01T08:58:25;16.92;;;5.50;;
27505;SDS011;14939;43.596;1.320;2023-02-01T09:00:51;13.40;;;5.10;;
27505;SDS011;14939;43.596;1.320;2023-02-01T09:03:17;12.95;;;4.47;;
27505;SDS011;14939;43.596;1.320;2023-02-01T09:05:43;12.07;;;4.93;;
27505;SDS011;14939;43.596;1.320;2023-02-01T09:08:10;9.95;;;4.25;;
27505;SDS011;14939;43.596;1.320;2023-02-01T09:10:38;9.43;;;4.50;;
27505;SDS011;14939;43.596;1.320;2023-02-01T09:13:03;10.00;;;4.63;;
27505;SDS011;14939;43.596;1.320;2023-02-01T09:15:29;9.65;;;4.32;;
27505;SDS011;14939;43.596;1.320;2023-02-01T09:17:55;11.77;;;5.13;;
27505;SDS011;14939;43.596;1.320;2023-02-01T09:20:21;11.25;;;4.53;;
27505;SDS011;14939;43.596;1.320;2023-02-01T09:22:49;10.55;;;4.05;;
27505;SDS011;14939;43.596;1.320;2023-02-01T09:25:19;14.40;;;3.50;;
27505;SDS011;14939;43.596;1.320;2023-02-01T09:27:45;18.60;;;3.60;;
27505;SDS011;14939;43.596;1.320;2023-02-01T09:30:11;10.63;;;3.30;;
27505;SDS011;14939;43.596;1.320;2023-02-01T09:32:37;10.00;;;3.00;;
27505;SDS011;14939;43.596;1.320;2023-02-01T09:35:02;9.52;;;2.88;;
27505;SDS011;14939;43.596;1.320;2023-02-01T09:37:28;10.40;;;3.20;;
27505;SDS011;14939;43.596;1.320;2023-02-01T09:39:54;13.27;;;3.30;;
27505;SDS011;14939;43.596;1.320;2023-02-01T09:42:23;8.32;;;3.08;;
27505;SDS011;14939;43.596;1.320;2023-02-01T09:45:09;13.98;;;3.17;;
27505;SDS011;14939;43.596;1.320;2023-02-01T09:47:51;11.60;;;3.00;;
27505;SDS011;14939;43.596;1.320;2023-02-01T09:50:21;16.35;;;2.88;;
27505;SDS011;14939;43.596;1.320;2023-02-01T09:52:57;12.35;;;3.25;;
27505;SDS011;14939;43.596;1.320;2023-02-01T10:00:42;15.35;;;3.20;;
27505;SDS011;14939;43.596;1.320;2023-02-01T10:03:16;13.35;;;3.22;;
27505;SDS011;14939;43.596;1.320;2023-02-01T10:19:44;13.43;;;3.28;;
27505;SDS011;14939;43.596;1.320;2023-02-01T10:24:53;15.20;;;3.47;;
27505;SDS011;14939;43.596;1.320;2023-02-01T10:27:33;10.63;;;3.00;;
27505;SDS011;14939;43.596;1.320;2023-02-01T10:32:52;10.77;;;3.22;;
27505;SDS011;14939;43.596;1.320;2023-02-01T10:35:22;9.38;;;3.13;;
27505;SDS011;14939;43.596;1.320;2023-02-01T10:37:53;12.13;;;3.13;;
27505;SDS011;14939;43.596;1.320;2023-02-01T10:42:49;13.85;;;2.60;;
27505;SDS011;14939;43.596;1.320;2023-02-01T10:45:21;12.27;;;3.20;;
27505;SDS011;14939;43.596;1.320;2023-02-01T10:47:49;9.23;;;2.42;;
27505;SDS011;14939;43.596;1.320;2023-02-01T10:50:18;11.45;;;3.35;;
27505;SDS011;14939;43.596;1.320;2023-02-01T10:52:58;9.20;;;2.53;;
27505;SDS011;14939;43.596;1.320;2023-02-01T10:55:46;6.30;;;2.08;;
27505;SDS011;14939;43.596;1.320;2023-02-01T11:00:56;12.32;;;3.08;;
27505;SDS011;14939;43.596;1.320;2023-02-01T11:06:01;9.02;;;3.05;;
27505;SDS011;14939;43.596;1.320;2023-02-01T11:08:34;10.45;;;2.70;;
27505;SDS011;14939;43.596;1.320;2023-02-01T11:11:09;12.05;;;3.20;;
27505;SDS011;14939;43.596;1.320;2023-02-01T11:13:37;9.27;;;2.65;;
27505;SDS011;14939;43.596;1.320;2023-02-01T11:16:04;8.35;;;2.80;;
27505;SDS011;14939;43.596;1.320;2023-02-01T11:18:32;7.68;;;3.03;;
27505;SDS011;14939;43.596;1.320;2023-02-01T11:21:01;6.15;;;2.97;;
27505;SDS011;14939;43.596;1.320;2023-02-01T11:23:29;7.97;;;2.63;;
27505;SDS011;14939;43.596;1.320;2023-02-01T11:26:40;7.50;;;3.22;;
27505;SDS011;14939;43.596;1.320;2023-02-01T11:28:57;8.95;;;3.40;;
27505;SDS011;14939;43.596;1.320;2023-02-01T11:31:28;9.35;;;3.88;;
27505;SDS011;14939;43.596;1.320;2023-02-01T11:33:57;8.75;;;3.58;;
27505;SDS011;14939;43.596;1.320;2023-02-01T11:36:30;9.98;;;3.38;;
27505;SDS011;14939;43.596;1.320;2023-02-01T11:39:17;7.40;;;3.20;;
27505;SDS011;14939;43.596;1.320;2023-02-01T11:42:03;6.80;;;3.15;;
27505;SDS011;14939;43.596;1.320;2023-02-01T11:44:41;8.18;;;2.92;;
27505;SDS011;14939;43.596;1.320;2023-02-01T11:49:49;7.20;;;2.55;;
27505;SDS011;14939;43.596;1.320;2023-02-01T11:52:27;6.90;;;2.50;;
27505;SDS011;14939;43.596;1.320;2023-02-01T12:00:14;6.47;;;2.80;;
27505;SDS011;14939;43.596;1.320;2023-02-01T12:03:01;8.63;;;3.10;;
27505;SDS011;14939;43.596;1.320;2023-02-01T12:08:47;5.45;;;2.95;;
27505;SDS011;14939;43.596;1.320;2023-02-01T12:11:40;6.78;;;3.47;;
27505;SDS011;14939;43.596;1.320;2023-02-01T12:14:31;8.80;;;3.65;;
27505;SDS011;14939;43.596;1.320;2023-02-01T12:26:58;6.32;;;3.80;;
27505;SDS011;14939;43.596;1.320;2023-02-01T12:43:49;3.80;;;2.80;;
27505;SDS011;14939;43.596;1.320;2023-02-01T12:46:19;7.20;;;3.42;;
27505;SDS011;14939;43.596;1.320;2023-02-01T12:48:54;7.63;;;3.58;;
27505;SDS011;14939;43.596;1.320;2023-02-01T12:51:26;7.32;;;3.63;;
27505;SDS011;14939;43.596;1.320;2023-02-01T12:57:02;5.75;;;3.13;;
27505;SDS011;14939;43.596;1.320;2023-02-01T12:59:42;6.38;;;2.85;;
27505;SDS011;14939;43.596;1.320;2023-02-01T13:07:34;4.05;;;1.83;;
27505;SDS011;14939;43.596;1.320;2023-02-01T13:18:54;3.75;;;1.85;;
27505;SDS011;14939;43.596;1.320;2023-02-01T13:21:42;2.92;;;1.52;;
27505;SDS011;14939;43.596;1.320;2023-02-01T13:24:22;2.35;;;1.80;;
27505;SDS011;14939;43.596;1.320;2023-02-01T13:26:52;2.72;;;1.60;;
27505;SDS011;14939;43.596;1.320;2023-02-01T13:29:19;5.20;;;1.75;;
27505;SDS011;14939;43.596;1.320;2023-02-01T13:31:57;2.40;;;1.40;;
27505;SDS011;14939;43.596;1.320;2023-02-01T13:45:57;4.50;;;2.13;;
27505;SDS011;14939;43.596;1.320;2023-02-01T13:51:18;5.78;;;2.10;;
27505;SDS011;14939;43.596;1.320;2023-02-01T13:54:03;3.00;;;1.95;;
27505;SDS011;14939;43.596;1.320;2023-02-01T13:56:32;3.40;;;2.13;;
27505;SDS011;14939;43.596;1.320;2023-02-01T14:05:12;4.60;;;2.88;;
27505;SDS011;14939;43.596;1.320;2023-02-01T14:23:44;5.28;;;3.05;;
27505;SDS011;14939;43.596;1.320;2023-02-01T14:26:58;5.93;;;3.45;;
27505;SDS011;14939;43.596;1.320;2023-02-01T14:31:59;5.55;;;3.13;;
27505;SDS011;14939;43.596;1.320;2023-02-01T15:01:05;3.20;;;2.40;;
27505;SDS011;14939;43.596;1.320;2023-02-01T15:03:41;5.32;;;3.25;;
27505;SDS011;14939;43.596;1.320;2023-02-01T15:09:16;6.75;;;2.65;;
27505;SDS011;14939;43.596;1.320;2023-02-01T15:12:04;3.45;;;2.30;;
27505;SDS011;14939;43.596;1.320;2023-02-01T15:14:40;5.70;;;2.92;;
27505;SDS011;14939;43.596;1.320;2023-02-01T15:17:28;4.75;;;2.47;;
27505;SDS011;14939;43.596;1.320;2023-02-01T15:20:12;4.90;;;2.60;;
27505;SDS011;14939;43.596;1.320;2023-02-01T15:22:40;3.80;;;2.63;;
27505;SDS011;14939;43.596;1.320;2023-02-01T15:25:21;4.53;;;3.20;;
27505;SDS011;14939;43.596;1.320;2023-02-01T15:27:52;3.70;;;2.65;;
27505;SDS011;14939;43.596;1.320;2023-02-01T15:32:45;4.55;;;2.88;;
27505;SDS011;14939;43.596;1.320;2023-02-01T15:43:39;6.85;;;3.35;;
27505;SDS011;14939;43.596;1.320;2023-02-01T15:46:15;3.05;;;2.40;;
27505;SDS011;14939;43.596;1.320;2023-02-01T15:48:48;3.83;;;2.40;;
27505;SDS011;14939;43.596;1.320;2023-02-01T15:51:17;4.97;;;2.47;;
27505;SDS011;14939;43.596;1.320;2023-02-01T15:53:46;3.78;;;2.50;;
27505;SDS011;14939;43.596;1.320;2023-02-01T15:56:25;5.00;;;2.53;;
27505;SDS011;14939;43.596;1.320;2023-02-01T15:58:54;5.38;;;3.33;;
27505;SDS011;14939;43.596;1.320;2023-02-01T16:01:22;5.88;;;3.00;;
27505;SDS011;14939;43.596;1.320;2023-02-01T16:03:49;4.57;;;2.60;;
27505;SDS011;14939;43.596;1.320;2023-02-01T16:06:27;4.40;;;2.60;;
27505;SDS011;14939;43.596;1.320;2023-02-01T16:08:55;3.60;;;2.40;;
27505;SDS011;14939;43.596;1.320;2023-02-01T16:11:31;3.50;;;2.55;;
27505;SDS011;14939;43.596;1.320;2023-02-01T16:14:04;2.50;;;2.13;;
27505;SDS011;14939;43.596;1.320;2023-02-01T16:16:30;3.80;;;2.03;;
27505;SDS011;14939;43.596;1.320;2023-02-01T16:18:56;4.15;;;2.08;;
27505;SDS011;14939;43.596;1.320;2023-02-01T16:21:22;3.05;;;2.10;;
27505;SDS011;14939;43.596;1.320;2023-02-01T16:23:49;2.78;;;2.00;;
27505;SDS011;14939;43.596;1.320;2023-02-01T16:26:16;3.15;;;1.73;;
27505;SDS011;14939;43.596;1.320;2023-02-01T16:28:41;2.75;;;1.58;;
27505;SDS011;14939;43.596;1.320;2023-02-01T16:31:11;2.63;;;2.00;;
27505;SDS011;14939;43.596;1.320;2023-02-01T16:33:50;4.60;;;2.40;;
27505;SDS011;14939;43.596;1.320;2023-02-01T16:36:17;4.72;;;2.38;;
27505;SDS011;14939;43.596;1.320;2023-02-01T16:38:43;4.97;;;2.20;;
27505;SDS011;14939;43.596;1.320;2023-02-01T16:41:15;2.58;;;2.20;;
27505;SDS011;14939;43.596;1.320;2023-02-01T16:43:43;3.38;;;1.95;;
27505;SDS011;14939;43.596;1.320;2023-02-01T16:46:17;3.63;;;1.63;;
27505;SDS011;14939;43.596;1.320;2023-02-01T16:49:05;3.20;;;1.90;;
27505;SDS011;14939;43.596;1.320;2023-02-01T16:51:40;3.05;;;2.10;;
27505;SDS011;14939;43.596;1.320;2023-02-01T16:54:07;3.97;;;2.83;;
27505;SDS011;14939;43.596;1.320;2023-02-01T16:56:33;5.25;;;2.17;;
27505;SDS011;14939;43.596;1.320;2023-02-01T16:59:00;5.32;;;2.72;;
27505;SDS011;14939;43.596;1.320;2023-02-01T17:01:27;6.10;;;3.85;;
27505;SDS011;14939;43.596;1.320;2023-02-01T17:03:53;7.05;;;3.85;;
27505;SDS011;14939;43.596;1.320;2023-02-01T17:06:20;7.15;;;3.00;;
27505;SDS011;14939;43.596;1.320;2023-02-01T17:08:55;4.45;;;3.00;;
27505;SDS011;14939;43.596;1.320;2023-02-01T17:11:27;4.60;;;2.70;;
27505;SDS011;14939;43.596;1.320;2023-02-01T17:13:55;5.88;;;3.80;;
27505;SDS011;14939;43.596;1.320;2023-02-01T17:16:33;10.43;;;7.03;;
27505;SDS011;14939;43.596;1.320;2023-02-01T17:19:01;17.40;;;15.43;;
27505;SDS011;14939;43.596;1.320;2023-02-01T17:21:30;34.97;;;26.50;;
27505;SDS011;14939;43.596;1.320;2023-02-01T17:24:11;15.23;;;10.65;;
27505;SDS011;14939;43.596;1.320;2023-02-01T17:26:39;37.05;;;26.35;;
27505;SDS011;14939;43.596;1.320;2023-02-01T17:29:05;19.70;;;14.35;;
27505;SDS011;14939;43.596;1.320;2023-02-01T17:31:32;10.60;;;5.90;;
27505;SDS011;14939;43.596;1.320;2023-02-01T17:34:01;8.15;;;3.85;;
27505;SDS011;14939;43.596;1.320;2023-02-01T17:36:27;8.90;;;4.72;;
27505;SDS011;14939;43.596;1.320;2023-02-01T17:38:53;9.15;;;4.93;;
27505;SDS011;14939;43.596;1.320;2023-02-01T17:41:18;6.88;;;4.45;;
27505;SDS011;14939;43.596;1.320;2023-02-01T17:43:44;13.45;;;9.02;;
27505;SDS011;14939;43.596;1.320;2023-02-01T17:46:11;34.83;;;28.38;;
27505;SDS011;14939;43.596;1.320;2023-02-01T17:48:39;58.55;;;41.67;;
27505;SDS011;14939;43.596;1.320;2023-02-01T17:51:05;38.33;;;24.10;;
27505;SDS011;14939;43.596;1.320;2023-02-01T17:53:45;42.90;;;28.65;;
27505;SDS011;14939;43.596;1.320;2023-02-01T17:56:15;41.95;;;26.88;;
27505;SDS011;14939;43.596;1.320;2023-02-01T17:58:46;60.50;;;34.75;;
27505;SDS011;14939;43.596;1.320;2023-02-01T18:01:20;187.75;;;91.88;;
27505;SDS011;14939;43.596;1.320;2023-02-01T18:03:48;262.45;;;127.30;;
27505;SDS011;14939;43.596;1.320;2023-02-01T18:06:20;200.32;;;105.15;;
27505;SDS011;14939;43.596;1.320;2023-02-01T18:08:47;204.52;;;108.97;;
27505;SDS011;14939;43.596;1.320;2023-02-01T18:11:16;126.53;;;68.97;;
27505;SDS011;14939;43.596;1.320;2023-02-01T18:13:46;101.40;;;60.83;;
27505;SDS011;14939;43.596;1.320;2023-02-01T18:16:19;102.45;;;62.95;;
27505;SDS011;14939;43.596;1.320;2023-02-01T18:18:46;111.10;;;61.78;;